createdAt,value
2019-04-02T00:02:25.612Z,41.37
2019-04-02T00:04:57.932Z,45.33
2019-04-02T00:07:30.033Z,39.50
2019-04-02T00:10:02.579Z,41.13
2019-04-02T00:12:35.274Z,41.02
2019-04-02T00:15:08.155Z,40.15
2019-04-02T00:17:41.313Z,40.63
2019-04-02T00:20:14.393Z,40.58
2019-04-02T00:22:46.697Z,42.23
2019-04-02T00:25:19.514Z,40.33
2019-04-02T00:27:51.373Z,51.92
2019-04-02T00:30:23.813Z,48.60
2019-04-02T00:32:57.033Z,42.00
2019-04-02T00:35:29.873Z,37.80
2019-04-02T00:38:03.212Z,44.10
2019-04-02T00:40:34.392Z,45.30
2019-04-02T00:43:07.591Z,42.50
2019-04-02T00:45:39.716Z,42.93
2019-04-02T00:48:12.411Z,44.65
2019-04-02T00:50:45.913Z,44.10
2019-04-02T00:53:19.492Z,45.67
2019-04-02T00:55:53.271Z,46.77
2019-04-02T00:58:25.272Z,48.15
2019-04-02T01:00:57.733Z,47.20
2019-04-02T01:03:30.971Z,43.20
2019-04-02T01:06:04.810Z,51.98
2019-04-02T01:08:37.993Z,42.67
2019-04-02T01:11:10.594Z,46.35
2019-04-02T01:13:43.072Z,50.70
2019-04-02T01:16:16.552Z,44.00
2019-04-02T01:18:49.835Z,46.05
2019-04-02T01:21:22.112Z,45.78
2019-04-02T01:23:55.392Z,42.88
2019-04-02T01:26:27.854Z,42.33
2019-04-02T01:29:14.593Z,41.35
2019-04-02T01:31:47.592Z,39.78
2019-04-02T01:34:20.691Z,40.52
2019-04-02T01:36:54.199Z,39.08
2019-04-02T01:39:27.072Z,39.78
2019-04-02T01:41:59.914Z,40.00
2019-04-02T01:44:32.021Z,40.25
2019-04-02T01:47:04.800Z,41.40
2019-04-02T01:49:36.940Z,41.20
2019-04-02T01:52:10.059Z,61.50
2019-04-02T01:54:41.839Z,38.98
2019-04-02T01:57:14.820Z,36.63
2019-04-02T01:59:48.260Z,37.17
2019-04-02T02:02:20.319Z,40.95
2019-04-02T02:04:52.820Z,37.05
2019-04-02T02:07:25.600Z,40.83
2019-04-02T02:09:58.900Z,37.28
2019-04-02T02:12:31.922Z,35.35
2019-04-02T02:15:05.219Z,37.58
2019-04-02T02:17:38.220Z,41.30
2019-04-02T02:20:11.460Z,41.18
2019-04-02T02:22:44.680Z,38.28
2019-04-02T02:25:17.380Z,40.58
2019-04-02T02:27:49.683Z,34.83
2019-04-02T02:30:22.642Z,41.18
2019-04-02T02:32:55.801Z,55.25
2019-04-02T02:35:28.464Z,48.70
2019-04-02T02:38:02.543Z,48.98
2019-04-02T02:41:12.621Z,55.25
2019-04-02T02:43:45.403Z,43.78
2019-04-02T02:46:18.542Z,48.95
2019-04-02T02:48:51.781Z,43.25
2019-04-02T02:51:25.381Z,51.80
2019-04-02T02:53:58.741Z,42.75
2019-04-02T02:56:31.821Z,42.05
2019-04-02T02:59:04.262Z,42.88
2019-04-02T03:01:38.380Z,38.80
2019-04-02T03:04:11.501Z,39.50
2019-04-02T03:06:44.600Z,38.88
2019-04-02T03:09:18.300Z,40.17
2019-04-02T03:11:51.345Z,40.63
2019-04-02T03:14:23.622Z,39.85
2019-04-02T03:16:56.880Z,36.88
2019-04-02T03:19:29.761Z,43.13
2019-04-02T03:22:02.159Z,37.48
2019-04-02T03:24:34.744Z,38.85
2019-04-02T03:27:07.724Z,43.50
2019-04-02T03:29:40.860Z,39.98
2019-04-02T03:32:14.741Z,38.15
2019-04-02T03:34:47.440Z,41.77
2019-04-02T03:37:19.884Z,40.92
2019-04-02T03:39:53.201Z,55.73
2019-04-02T03:42:26.173Z,40.88
2019-04-02T03:44:58.300Z,40.30
2019-04-02T03:47:32.001Z,40.45
2019-04-02T03:50:04.140Z,38.58
2019-04-02T03:52:36.640Z,37.40
2019-04-02T03:55:10.307Z,47.03
2019-04-02T03:57:43.920Z,38.17
2019-04-02T04:00:17.680Z,44.98
2019-04-02T04:02:50.901Z,41.58
2019-04-02T04:05:23.582Z,45.55
2019-04-02T04:07:56.721Z,38.80
2019-04-02T04:11:04.143Z,35.88
2019-04-02T04:13:36.643Z,42.88
2019-04-02T04:16:11.593Z,38.58
2019-04-02T04:18:43.657Z,34.67
2019-04-02T04:21:16.740Z,40.73
2019-04-02T04:23:49.468Z,206.63
2019-04-02T04:26:22.541Z,44.65
2019-04-02T04:28:55.141Z,33.15
2019-04-02T04:31:27.986Z,33.23
2019-04-02T04:34:00.880Z,30.08
2019-04-02T04:36:33.740Z,29.92
2019-04-02T04:39:07.200Z,33.90
2019-04-02T04:41:40.239Z,37.23
2019-04-02T04:44:13.413Z,44.13
2019-04-02T04:46:46.880Z,36.20
2019-04-02T04:49:19.683Z,33.15
2019-04-02T04:51:52.381Z,37.38
2019-04-02T04:54:26.525Z,50.55
2019-04-02T04:56:59.100Z,42.58
2019-04-02T04:59:32.300Z,43.38
2019-04-02T05:02:43.282Z,32.40
2019-04-02T05:05:16.279Z,33.95
2019-04-02T05:07:49.098Z,31.70
2019-04-02T05:10:22.439Z,33.05
2019-04-02T05:12:55.380Z,33.63
2019-04-02T05:15:28.041Z,36.20
2019-04-02T05:18:01.201Z,35.85
2019-04-02T05:20:33.640Z,32.80
2019-04-02T05:23:05.740Z,34.55
2019-04-02T05:25:38.799Z,36.30
2019-04-02T05:28:11.680Z,37.60
2019-04-02T05:30:43.920Z,46.02
2019-04-02T05:33:16.820Z,39.18
2019-04-02T05:35:50.379Z,38.98
2019-04-02T05:38:22.740Z,37.95
2019-04-02T05:40:55.920Z,38.80
2019-04-02T05:43:29.020Z,36.00
2019-04-02T05:46:02.219Z,39.30
2019-04-02T05:48:34.579Z,38.45
2019-04-02T05:51:07.019Z,38.85
2019-04-02T05:53:39.420Z,41.30
2019-04-02T05:56:12.360Z,38.53
2019-04-02T05:58:44.660Z,39.63
2019-04-02T06:01:19.183Z,38.78
2019-04-02T06:03:51.840Z,43.28
2019-04-02T06:06:24.280Z,39.75
2019-04-02T06:08:57.541Z,41.28
2019-04-02T06:11:30.025Z,38.88
2019-04-02T06:14:02.640Z,39.70
2019-04-02T06:16:35.500Z,37.13
2019-04-02T06:19:08.179Z,38.60
2019-04-02T06:21:40.599Z,40.60
2019-04-02T06:24:13.521Z,39.63
2019-04-02T06:26:46.556Z,40.73
2019-04-02T06:29:19.275Z,38.85
2019-04-02T06:31:52.605Z,41.23
2019-04-02T06:34:25.575Z,40.10
2019-04-02T06:36:57.860Z,42.70
2019-04-02T06:39:30.995Z,36.30
2019-04-02T06:42:04.277Z,41.80
2019-04-02T06:44:35.675Z,39.67
2019-04-02T06:47:08.915Z,43.55
2019-04-02T06:50:05.594Z,41.55
2019-04-02T06:52:38.674Z,35.05
2019-04-02T06:55:11.175Z,34.48
2019-04-02T06:57:43.735Z,38.38
2019-04-02T07:00:18.395Z,36.50
2019-04-02T07:02:50.883Z,33.67
2019-04-02T07:05:23.335Z,42.23
2019-04-02T07:07:55.455Z,41.18
2019-04-02T07:10:29.273Z,34.40
2019-04-02T07:13:01.694Z,34.90
2019-04-02T07:15:34.976Z,34.38
2019-04-02T07:18:07.595Z,31.60
2019-04-02T07:20:39.875Z,32.73
2019-04-02T07:23:13.094Z,31.70
2019-04-02T07:25:46.089Z,35.05
2019-04-02T07:28:18.715Z,30.15
2019-04-02T07:30:51.157Z,33.18
2019-04-02T07:33:25.192Z,34.08
2019-04-02T07:35:58.877Z,30.65
2019-04-02T07:38:31.956Z,31.05
2019-04-02T07:41:05.094Z,33.10
2019-04-02T07:43:36.715Z,35.05
2019-04-02T07:46:09.418Z,38.28
2019-04-02T07:48:42.270Z,33.78
2019-04-02T07:51:15.230Z,35.45
2019-04-02T07:53:48.649Z,39.67
2019-04-02T07:56:21.289Z,44.25
2019-04-02T07:58:53.887Z,35.75
2019-04-02T08:01:26.244Z,37.30
2019-04-02T08:03:58.727Z,38.70
2019-04-02T08:06:32.687Z,41.40
2019-04-02T08:09:05.730Z,47.83
2019-04-02T08:11:39.030Z,44.77
2019-04-02T08:14:11.860Z,40.52
2019-04-02T08:16:44.859Z,39.73
2019-04-02T08:19:17.682Z,38.33
2019-04-02T08:21:51.160Z,43.48
2019-04-02T08:24:24.539Z,42.30
2019-04-02T08:26:57.879Z,41.08
2019-04-02T08:29:30.943Z,40.55
2019-04-02T08:32:03.160Z,39.27
2019-04-02T08:34:36.081Z,37.58
2019-04-02T08:37:09.139Z,41.98
2019-04-02T08:39:42.267Z,36.60
2019-04-02T08:42:15.861Z,53.95
2019-04-02T08:44:48.062Z,41.92
2019-04-02T08:47:21.323Z,46.65
2019-04-02T08:49:55.046Z,40.15
2019-04-02T08:52:29.022Z,42.88
2019-04-02T08:55:02.083Z,45.33
2019-04-02T08:57:34.303Z,43.10
2019-04-02T09:00:08.204Z,43.33
2019-04-02T09:02:43.262Z,44.75
2019-04-02T09:05:15.862Z,45.73
2019-04-02T09:07:48.768Z,44.20
2019-04-02T09:10:23.503Z,47.95
2019-04-02T09:12:55.803Z,56.05
2019-04-02T09:15:29.325Z,42.48
2019-04-02T09:18:02.463Z,48.58
2019-04-02T09:20:35.242Z,49.13
2019-04-02T09:23:07.923Z,50.48
2019-04-02T09:25:40.465Z,44.40
2019-04-02T09:28:14.522Z,50.30
2019-04-02T09:30:46.542Z,54.80
2019-04-02T09:33:17.360Z,57.40
2019-04-02T09:35:48.158Z,57.13
2019-04-02T09:38:19.820Z,56.97
2019-04-02T09:40:50.519Z,54.93
2019-04-02T09:43:21.280Z,46.28
2019-04-02T09:45:54.240Z,57.33
2019-04-02T09:48:27.119Z,60.78
2019-04-02T09:51:00.039Z,56.35
2019-04-02T09:53:32.579Z,61.02
2019-04-02T09:56:07.552Z,61.58
2019-04-02T09:58:42.124Z,58.98
2019-04-02T10:01:17.020Z,65.07
2019-04-02T10:03:50.186Z,63.57
2019-04-02T10:06:22.682Z,66.57
2019-04-02T10:08:56.441Z,64.40
2019-04-02T10:11:29.402Z,65.15
2019-04-02T10:14:02.970Z,70.22
2019-04-02T10:16:34.560Z,75.97
2019-04-02T10:19:07.460Z,66.72
2019-04-02T10:21:40.460Z,65.25
2019-04-02T10:24:13.600Z,68.02
2019-04-02T10:26:46.582Z,74.05
2019-04-02T10:29:18.701Z,71.17
2019-04-02T10:31:51.358Z,70.30
2019-04-02T10:34:24.201Z,73.33
2019-04-02T10:36:59.650Z,73.60
2019-04-02T10:39:31.500Z,69.10
2019-04-02T10:42:04.144Z,70.22
2019-04-02T10:44:36.542Z,68.70
2019-04-02T10:47:09.424Z,72.32
2019-04-02T10:49:42.144Z,78.15
2019-04-02T10:52:14.162Z,69.03
2019-04-02T10:54:47.281Z,69.07
2019-04-02T10:57:20.020Z,69.22
2019-04-02T10:59:52.539Z,68.10
2019-04-02T11:02:25.839Z,66.37
2019-04-02T11:05:02.803Z,73.43
2019-04-02T11:07:33.368Z,74.17
2019-04-02T11:10:05.900Z,69.70
2019-04-02T11:12:39.120Z,71.70
2019-04-02T11:15:11.278Z,71.17
2019-04-02T11:17:42.858Z,65.70
2019-04-02T11:20:16.554Z,71.53
2019-04-02T11:22:51.803Z,70.20
2019-04-02T11:25:23.895Z,71.47
2019-04-02T11:27:56.175Z,71.17
2019-04-02T11:30:29.379Z,71.60
2019-04-02T11:33:01.743Z,72.73
2019-04-02T11:35:35.198Z,65.23
2019-04-02T11:38:08.034Z,67.00
2019-04-02T11:40:41.908Z,64.27
2019-04-02T11:43:16.286Z,70.30
2019-04-02T11:45:48.134Z,70.27
2019-04-02T11:48:20.914Z,70.03
2019-04-02T11:50:52.694Z,65.53
2019-04-02T11:53:25.354Z,66.53
2019-04-02T11:55:57.874Z,66.67
2019-04-02T11:58:30.934Z,67.53
2019-04-02T12:01:04.623Z,71.43
2019-04-02T12:03:37.755Z,64.37
2019-04-02T12:06:11.336Z,60.07
2019-04-02T12:08:44.374Z,53.93
2019-04-02T12:11:17.956Z,56.20
2019-04-02T12:13:50.335Z,51.27
2019-04-02T12:16:22.635Z,51.47
2019-04-02T12:18:55.691Z,53.20
2019-04-02T12:21:28.515Z,56.57
2019-04-02T12:24:00.734Z,56.60
2019-04-02T12:26:33.835Z,60.07
2019-04-02T12:29:07.294Z,62.90
2019-04-02T12:31:42.174Z,55.73
2019-04-02T12:34:14.314Z,58.37
2019-04-02T12:36:47.054Z,54.50
2019-04-02T12:39:20.121Z,57.57
2019-04-02T12:41:52.614Z,54.07
2019-04-02T12:44:25.494Z,56.93
2019-04-02T12:46:59.435Z,62.23
2019-04-02T12:49:31.955Z,64.07
2019-04-02T12:52:03.334Z,58.70
2019-04-02T12:54:36.615Z,62.63
2019-04-02T12:57:09.017Z,66.47
2019-04-02T12:59:41.558Z,62.33
2019-04-02T13:02:14.595Z,64.30
2019-04-02T13:04:47.276Z,62.00
2019-04-02T13:07:20.143Z,57.93
2019-04-02T13:09:52.994Z,58.37
2019-04-02T13:12:24.695Z,56.70
2019-04-02T13:14:57.895Z,55.73
2019-04-02T13:17:30.378Z,61.60
2019-04-02T13:20:03.655Z,51.90
2019-04-02T13:22:36.552Z,54.80
2019-04-02T13:25:11.692Z,51.93
2019-04-02T13:27:44.014Z,58.23
2019-04-02T13:30:17.546Z,52.93
2019-04-02T13:32:51.256Z,53.23
2019-04-02T13:35:24.060Z,53.83
2019-04-02T13:37:57.115Z,50.67
2019-04-02T13:40:30.194Z,47.97
2019-04-02T13:43:02.640Z,51.17
2019-04-02T13:45:35.215Z,54.43
2019-04-02T13:48:07.896Z,48.50
2019-04-02T13:50:40.156Z,46.90
2019-04-02T13:53:12.615Z,57.43
2019-04-02T13:55:45.695Z,49.87
2019-04-02T13:58:19.754Z,45.20
2019-04-02T14:01:18.414Z,47.53
2019-04-02T14:03:50.896Z,54.30
2019-04-02T14:06:23.915Z,44.30
2019-04-02T14:08:56.238Z,46.27
2019-04-02T14:11:30.369Z,45.40
2019-04-02T14:14:03.335Z,39.27
2019-04-02T14:16:36.398Z,44.40
2019-04-02T14:19:09.335Z,43.40
2019-04-02T14:21:42.878Z,39.70
2019-04-02T14:24:15.095Z,43.53
2019-04-02T14:26:48.376Z,35.70
2019-04-02T14:29:21.516Z,34.90
2019-04-02T14:31:54.014Z,34.20
2019-04-02T14:34:27.615Z,34.43
2019-04-02T14:36:59.906Z,36.90
2019-04-02T14:39:32.714Z,33.57
2019-04-02T14:42:06.933Z,35.73
2019-04-02T14:44:40.204Z,32.60
2019-04-02T14:47:13.317Z,43.47
2019-04-02T14:49:45.274Z,40.60
2019-04-02T14:52:18.754Z,32.80
2019-04-02T14:54:51.515Z,42.30
2019-04-02T14:57:23.954Z,35.93
2019-04-02T14:59:56.735Z,32.57
2019-04-02T15:02:29.235Z,31.80
2019-04-02T15:05:01.814Z,43.30
2019-04-02T15:07:34.425Z,30.77
2019-04-02T15:10:07.235Z,34.17
2019-04-02T15:12:40.197Z,35.83
2019-04-02T15:15:13.358Z,35.00
2019-04-02T15:17:45.337Z,37.00
2019-04-02T15:20:18.978Z,35.83
2019-04-02T15:22:52.077Z,32.00
2019-04-02T15:25:24.537Z,24.77
2019-04-02T15:27:57.498Z,26.07
2019-04-02T15:30:30.737Z,27.47
2019-04-02T15:33:03.837Z,19.53
2019-04-02T15:35:35.556Z,25.47
2019-04-02T15:38:10.178Z,29.00
2019-04-02T15:40:42.298Z,17.67
2019-04-02T15:43:14.878Z,26.10
2019-04-02T15:45:45.659Z,23.60
2019-04-02T15:48:18.398Z,27.10
2019-04-02T15:50:50.158Z,20.87
2019-04-02T15:53:23.118Z,19.53
2019-04-02T15:55:56.500Z,19.70
2019-04-02T15:58:30.778Z,14.90
2019-04-02T16:01:03.939Z,15.07
2019-04-02T16:03:36.101Z,16.70
2019-04-02T16:06:09.038Z,10.77
2019-04-02T16:08:43.579Z,8.07
2019-04-02T16:11:16.599Z,10.43
2019-04-02T16:13:50.158Z,8.33
2019-04-02T16:16:22.758Z,10.07
2019-04-02T16:18:55.718Z,7.23
2019-04-02T16:21:28.887Z,8.83
2019-04-02T16:24:01.919Z,7.67
2019-04-02T16:26:37.879Z,7.83
2019-04-02T16:29:10.338Z,7.57
2019-04-02T16:31:42.400Z,7.80
2019-04-02T16:34:14.838Z,7.77
2019-04-02T16:36:47.478Z,8.90
2019-04-02T16:39:20.479Z,7.53
2019-04-02T16:41:52.918Z,7.60
2019-04-02T16:44:25.518Z,9.70
2019-04-02T16:46:58.979Z,9.80
2019-04-02T16:49:32.078Z,7.80
2019-04-02T16:52:04.398Z,9.37
2019-04-02T16:54:37.178Z,6.70
2019-04-02T16:57:10.879Z,7.53
2019-04-02T16:59:44.640Z,7.37
2019-04-02T17:02:18.038Z,11.03
2019-04-02T17:04:50.259Z,8.10
2019-04-02T17:07:25.979Z,7.30
2019-04-02T17:09:57.941Z,7.00
2019-04-02T17:12:33.158Z,8.17
2019-04-02T17:15:05.195Z,9.87
2019-04-02T17:17:37.701Z,7.87
2019-04-02T17:20:10.911Z,12.37
2019-04-02T17:22:43.058Z,8.57
2019-04-02T17:25:15.078Z,11.67
2019-04-02T17:27:48.217Z,7.53
2019-04-02T17:30:20.798Z,7.90
2019-04-02T17:32:53.898Z,9.57
2019-04-02T17:35:26.638Z,7.93
2019-04-02T17:37:59.838Z,9.50
2019-04-02T17:40:34.098Z,9.30
2019-04-02T17:43:06.738Z,11.53
2019-04-02T17:45:39.540Z,10.33
2019-04-02T17:48:11.378Z,7.77
2019-04-02T17:50:44.383Z,8.00
2019-04-02T17:53:17.004Z,8.00
2019-04-02T17:55:49.658Z,8.40
2019-04-02T17:58:22.239Z,8.13
2019-04-02T18:00:55.301Z,7.97
2019-04-02T18:03:28.899Z,7.90
2019-04-02T18:06:01.979Z,10.80
2019-04-02T18:08:33.458Z,9.10
2019-04-02T18:11:06.711Z,8.93
2019-04-02T18:13:39.159Z,9.03
2019-04-02T18:16:11.757Z,9.33
2019-04-02T18:18:43.998Z,10.20
2019-04-02T18:21:17.478Z,10.47
2019-04-02T18:23:49.538Z,16.40
2019-04-02T18:26:22.178Z,13.40
2019-04-02T18:28:55.418Z,8.60
2019-04-02T18:31:28.538Z,8.37
2019-04-02T18:34:01.059Z,8.23
2019-04-02T18:36:34.417Z,8.37
2019-04-02T18:39:08.141Z,7.97
2019-04-02T18:41:40.617Z,8.10
2019-04-02T18:44:13.142Z,12.00
2019-04-02T18:46:46.405Z,9.33
2019-04-02T18:49:20.872Z,8.70
2019-04-02T18:51:53.409Z,8.23
2019-04-02T18:54:26.442Z,7.73
2019-04-02T18:56:58.260Z,8.90
2019-04-02T18:59:30.739Z,13.93
2019-04-02T19:02:03.317Z,8.03
2019-04-02T19:04:52.837Z,8.53
2019-04-02T19:07:25.618Z,17.53
2019-04-02T19:09:57.877Z,9.00
2019-04-02T19:12:29.321Z,8.43
2019-04-02T19:15:02.521Z,9.90
2019-04-02T19:17:34.958Z,7.70
2019-04-02T19:20:08.381Z,8.97
2019-04-02T19:22:41.378Z,8.50
2019-04-02T19:25:14.177Z,8.43
2019-04-02T19:27:49.257Z,10.10
2019-04-02T19:30:21.698Z,8.73
2019-04-02T19:32:54.958Z,8.67
2019-04-02T19:35:27.998Z,7.50
2019-04-02T19:38:00.818Z,8.30
2019-04-02T19:40:33.421Z,7.50
2019-04-02T19:43:07.863Z,9.90
2019-04-02T19:45:40.637Z,7.87
2019-04-02T19:48:13.998Z,7.83
2019-04-02T19:50:46.818Z,7.90
2019-04-02T19:53:17.477Z,7.83
2019-04-02T19:55:50.197Z,7.47
2019-04-02T19:58:23.820Z,9.43
2019-04-02T20:00:58.119Z,10.77
2019-04-02T20:03:32.138Z,7.17
2019-04-02T20:06:04.858Z,7.90
2019-04-02T20:08:38.438Z,8.73
2019-04-02T20:11:11.738Z,9.10
2019-04-02T20:13:42.699Z,8.93
2019-04-02T20:16:16.178Z,8.27
2019-04-02T20:18:49.039Z,8.10
2019-04-02T20:21:21.517Z,8.40
2019-04-02T20:23:54.258Z,8.33
2019-04-02T20:26:26.718Z,9.53
2019-04-02T20:29:00.037Z,8.07
2019-04-02T20:31:32.398Z,10.77
2019-04-02T20:34:06.642Z,8.70
2019-04-02T20:36:39.197Z,10.27
2019-04-02T20:39:14.480Z,12.00
2019-04-02T20:41:48.967Z,13.20
2019-04-02T20:44:20.258Z,15.77
2019-04-02T20:46:52.937Z,13.70
2019-04-02T20:49:26.640Z,13.30
2019-04-02T20:51:59.917Z,18.03
2019-04-02T20:54:33.060Z,15.47
2019-04-02T20:57:05.838Z,14.77
2019-04-02T20:59:38.818Z,13.93
2019-04-02T21:02:11.638Z,15.60
2019-04-02T21:04:52.224Z,19.83
2019-04-02T21:07:19.085Z,13.40
2019-04-02T21:09:52.297Z,17.83
2019-04-02T21:12:24.537Z,16.13
2019-04-02T21:14:57.472Z,14.57
2019-04-02T21:17:30.598Z,14.20
2019-04-02T21:20:03.637Z,17.07
2019-04-02T21:22:36.019Z,16.30
2019-04-02T21:25:09.291Z,13.67
2019-04-02T21:27:42.344Z,12.10
2019-04-02T21:30:15.498Z,16.20
2019-04-02T21:32:47.598Z,16.90
2019-04-02T21:35:20.378Z,13.90
2019-04-02T21:37:57.332Z,12.23
2019-04-02T21:40:27.078Z,16.00
2019-04-02T21:42:58.797Z,13.17
2019-04-02T21:45:31.489Z,13.57
2019-04-02T21:48:05.560Z,12.63
2019-04-02T21:50:39.237Z,13.37
2019-04-02T21:53:12.312Z,13.40
2019-04-02T21:55:44.517Z,12.67
2019-04-02T21:58:17.220Z,12.43
2019-04-02T22:00:54.617Z,12.20
2019-04-02T22:03:27.420Z,14.20
2019-04-02T22:06:00.003Z,11.10
2019-04-02T22:08:31.818Z,10.77
2019-04-02T22:11:05.418Z,10.47
2019-04-02T22:13:38.011Z,11.10
2019-04-02T22:16:12.838Z,11.83
2019-04-02T22:18:45.052Z,10.17
2019-04-02T22:21:18.174Z,10.30
2019-04-02T22:23:51.110Z,10.27
2019-04-02T22:26:24.491Z,11.47
2019-04-02T22:28:59.262Z,10.27
2019-04-02T22:31:29.951Z,9.60
2019-04-02T22:34:11.905Z,9.20
2019-04-02T22:36:37.090Z,9.83
2019-04-02T22:39:11.512Z,9.77
2019-04-02T22:41:43.711Z,9.10
2019-04-02T22:44:15.932Z,10.73
2019-04-02T22:46:48.391Z,9.83
2019-04-02T22:49:21.052Z,8.80
2019-04-02T22:51:54.856Z,10.10
2019-04-02T22:54:31.455Z,8.73
2019-04-02T22:57:02.972Z,8.00
2019-04-02T22:59:35.914Z,9.77
2019-04-02T23:02:08.272Z,10.70
2019-04-02T23:04:40.874Z,9.83
2019-04-02T23:07:13.931Z,8.33
2019-04-02T23:09:47.912Z,12.20
2019-04-02T23:12:20.885Z,9.30
2019-04-02T23:14:54.452Z,8.60
2019-04-02T23:17:30.885Z,9.40
2019-04-02T23:20:01.708Z,7.93
2019-04-02T23:22:33.781Z,8.97
2019-04-02T23:25:06.651Z,8.90
2019-04-02T23:27:39.892Z,12.73
2019-04-02T23:30:12.691Z,7.90
2019-04-02T23:32:45.390Z,8.33
2019-04-02T23:35:18.010Z,8.10
2019-04-02T23:37:51.244Z,8.10
2019-04-02T23:40:24.284Z,8.50
2019-04-02T23:42:57.724Z,9.50
2019-04-02T23:45:31.482Z,8.97
2019-04-02T23:48:05.824Z,9.30
2019-04-02T23:50:39.438Z,7.50
2019-04-02T23:53:12.441Z,8.17
2019-04-02T23:55:44.924Z,8.63
2019-04-02T23:58:17.646Z,8.23
